Main page
METAR-TAF:

METAR-TAF

Airports :

Kinloss, Scotland

RAF Kinloss

latitude: 57-39N, longitude: 003-34W, elevation: 7 m

Current weather observation

The report was made 26 minutes ago, at 08:50 UTC
Wind 10 kt from the East
Temperature 8°C
Humidity 81%
Pressure 1014 hPa
Visibility: 6000 m
haze

METAR: EGQK 290850Z AUTO 09010KT 6000 HZ OVC029/// 08/05 Q1014

Time: 10:16 (09:16 UTC)


TAF: missing

Weather observations and forecasts of more than 4000 airports (METAR and TAF reports).

The available stations are represented by yellow and red dots on the map.

Hover mouse over dot to see the name of the station.

Then click to see weather observations and forecasts.

To change the map : click on the green buttons with a black cross to zoom in, on the green button with a dash to zoom out, or on the green arrows for adjacent maps.


METAR-TAF: